sensor_id;sensor_type;location;lat;lon;timestamp;pressure;altitude;pressure_sealevel;temperature;humidity
62600;BME280;48671;48.922;2.346;2023-02-07T00:00:09;103406.19;;;4.72;62.34
62600;BME280;48671;48.922;2.346;2023-02-07T00:02:35;103371.31;;;4.55;62.59
62600;BME280;48671;48.922;2.346;2023-02-07T00:05:00;103386.91;;;4.59;62.21
62600;BME280;48671;48.922;2.346;2023-02-07T00:07:26;103397.34;;;4.64;62.32
62600;BME280;48671;48.922;2.346;2023-02-07T00:09:52;103392.94;;;4.60;62.13
62600;BME280;48671;48.922;2.346;2023-02-07T00:12:17;103382.44;;;4.54;61.99
62600;BME280;48671;48.922;2.346;2023-02-07T00:14:43;103369.31;;;4.46;62.46
62600;BME280;48671;48.922;2.346;2023-02-07T00:17:08;103370.09;;;4.43;62.13
62600;BME280;48671;48.922;2.346;2023-02-07T00:19:34;103391.03;;;4.54;62.80
62600;BME280;48671;48.922;2.346;2023-02-07T00:21:59;103362.44;;;4.45;62.66
62600;BME280;48671;48.922;2.346;2023-02-07T00:24:25;103364.09;;;4.44;62.47
62600;BME280;48671;48.922;2.346;2023-02-07T00:26:50;103365.88;;;4.45;63.22
62600;BME280;48671;48.922;2.346;2023-02-07T00:29:17;103355.97;;;4.31;63.01
62600;BME280;48671;48.922;2.346;2023-02-07T00:31:43;103366.19;;;4.28;63.06
62600;BME280;48671;48.922;2.346;2023-02-07T00:34:09;103352.31;;;4.22;62.67
62600;BME280;48671;48.922;2.346;2023-02-07T00:36:36;103340.13;;;4.17;62.75
62600;BME280;48671;48.922;2.346;2023-02-07T00:39:05;103339.38;;;4.21;63.01
62600;BME280;48671;48.922;2.346;2023-02-07T00:41:31;103377.63;;;4.36;63.08
62600;BME280;48671;48.922;2.346;2023-02-07T00:43:56;103376.69;;;4.34;63.40
62600;BME280;48671;48.922;2.346;2023-02-07T00:46:22;103361.69;;;4.20;63.38
62600;BME280;48671;48.922;2.346;2023-02-07T00:48:48;103373.94;;;4.28;63.24
62600;BME280;48671;48.922;2.346;2023-02-07T00:51:14;103367.97;;;4.29;63.39
62600;BME280;48671;48.922;2.346;2023-02-07T00:53:40;103360.13;;;4.26;63.50
62600;BME280;48671;48.922;2.346;2023-02-07T00:56:07;103340.03;;;4.14;62.89
62600;BME280;48671;48.922;2.346;2023-02-07T00:58:33;103361.91;;;4.28;63.54
62600;BME280;48671;48.922;2.346;2023-02-07T01:00:58;103376.50;;;4.28;62.89
62600;BME280;48671;48.922;2.346;2023-02-07T01:03:24;103357.19;;;4.13;63.35
62600;BME280;48671;48.922;2.346;2023-02-07T01:05:49;103352.59;;;4.03;64.02
62600;BME280;48671;48.922;2.346;2023-02-07T01:08:15;103360.50;;;4.09;63.40
62600;BME280;48671;48.922;2.346;2023-02-07T01:10:42;103365.00;;;4.16;63.48
62600;BME280;48671;48.922;2.346;2023-02-07T01:13:08;103361.50;;;4.14;63.28
62600;BME280;48671;48.922;2.346;2023-02-07T01:15:38;103364.94;;;4.15;63.14
62600;BME280;48671;48.922;2.346;2023-02-07T01:18:05;103374.63;;;4.22;63.11
62600;BME280;48671;48.922;2.346;2023-02-07T01:20:30;103358.03;;;4.12;63.18
62600;BME280;48671;48.922;2.346;2023-02-07T01:22:56;103359.03;;;4.17;62.98
62600;BME280;48671;48.922;2.346;2023-02-07T01:25:21;103346.59;;;4.04;63.24
62600;BME280;48671;48.922;2.346;2023-02-07T01:27:47;103348.44;;;4.08;63.29
62600;BME280;48671;48.922;2.346;2023-02-07T01:30:13;103339.63;;;4.02;63.40
62600;BME280;48671;48.922;2.346;2023-02-07T01:32:38;103366.75;;;4.17;63.26
62600;BME280;48671;48.922;2.346;2023-02-07T01:35:04;103325.88;;;4.01;63.35
62600;BME280;48671;48.922;2.346;2023-02-07T01:37:29;103347.63;;;4.09;63.59
62600;BME280;48671;48.922;2.346;2023-02-07T01:39:55;103351.19;;;4.14;63.34
62600;BME280;48671;48.922;2.346;2023-02-07T01:42:23;103355.66;;;4.20;63.22
62600;BME280;48671;48.922;2.346;2023-02-07T01:47:17;103343.19;;;4.05;63.48
62600;BME280;48671;48.922;2.346;2023-02-07T01:49:44;103348.41;;;4.07;63.10
62600;BME280;48671;48.922;2.346;2023-02-07T01:52:14;103339.50;;;3.97;63.54
62600;BME280;48671;48.922;2.346;2023-02-07T01:54:43;103335.91;;;3.92;63.58
62600;BME280;48671;48.922;2.346;2023-02-07T01:57:14;103348.19;;;3.99;63.65
62600;BME280;48671;48.922;2.346;2023-02-07T01:59:41;103365.38;;;4.00;63.76
62600;BME280;48671;48.922;2.346;2023-02-07T02:02:10;103349.91;;;4.00;64.00
62600;BME280;48671;48.922;2.346;2023-02-07T02:04:37;103327.91;;;3.83;63.88
62600;BME280;48671;48.922;2.346;2023-02-07T02:07:05;103360.75;;;3.90;63.71
62600;BME280;48671;48.922;2.346;2023-02-07T02:09:32;103345.75;;;3.77;64.20
62600;BME280;48671;48.922;2.346;2023-02-07T02:12:08;103355.22;;;3.78;63.97
62600;BME280;48671;48.922;2.346;2023-02-07T02:18:22;103351.59;;;3.72;64.38
62600;BME280;48671;48.922;2.346;2023-02-07T02:21:14;103342.00;;;3.67;64.52
62600;BME280;48671;48.922;2.346;2023-02-07T02:24:20;103316.63;;;3.52;64.40
62600;BME280;48671;48.922;2.346;2023-02-07T02:35:17;103325.22;;;3.52;65.50
62600;BME280;48671;48.922;2.346;2023-02-07T02:40:39;103298.72;;;3.28;64.97
62600;BME280;48671;48.922;2.346;2023-02-07T02:43:24;103321.47;;;3.43;65.50
62600;BME280;48671;48.922;2.346;2023-02-07T02:45:58;103325.75;;;3.42;65.65
62600;BME280;48671;48.922;2.346;2023-02-07T02:48:26;103330.88;;;3.41;65.33
62600;BME280;48671;48.922;2.346;2023-02-07T02:50:54;103306.16;;;3.20;65.57
62600;BME280;48671;48.922;2.346;2023-02-07T02:53:20;103314.03;;;3.25;65.73
62600;BME280;48671;48.922;2.346;2023-02-07T02:55:53;103335.63;;;3.30;65.19
62600;BME280;48671;48.922;2.346;2023-02-07T03:01:13;103331.28;;;3.27;65.32
62600;BME280;48671;48.922;2.346;2023-02-07T03:09:39;103308.28;;;3.07;65.68
62600;BME280;48671;48.922;2.346;2023-02-07T03:12:15;103325.81;;;3.18;66.22
62600;BME280;48671;48.922;2.346;2023-02-07T03:14:54;103284.88;;;2.99;66.27
62600;BME280;48671;48.922;2.346;2023-02-07T03:17:31;103284.97;;;3.02;66.01
62600;BME280;48671;48.922;2.346;2023-02-07T03:20:32;103288.63;;;3.09;65.52
62600;BME280;48671;48.922;2.346;2023-02-07T03:23:01;103292.06;;;3.09;65.85
62600;BME280;48671;48.922;2.346;2023-02-07T03:25:29;103290.34;;;3.08;65.93
62600;BME280;48671;48.922;2.346;2023-02-07T03:27:55;103288.44;;;3.04;65.95
62600;BME280;48671;48.922;2.346;2023-02-07T03:30:23;103324.84;;;3.15;65.93
62600;BME280;48671;48.922;2.346;2023-02-07T03:32:53;103319.38;;;3.05;66.65
62600;BME280;48671;48.922;2.346;2023-02-07T03:35:24;103332.41;;;3.10;66.04
62600;BME280;48671;48.922;2.346;2023-02-07T03:37:57;103329.78;;;3.09;66.75
62600;BME280;48671;48.922;2.346;2023-02-07T03:40:28;103317.44;;;2.98;66.28
62600;BME280;48671;48.922;2.346;2023-02-07T03:43:10;103310.44;;;2.94;66.07
62600;BME280;48671;48.922;2.346;2023-02-07T03:45:38;103308.66;;;2.93;66.47
62600;BME280;48671;48.922;2.346;2023-02-07T03:48:03;103308.53;;;2.89;66.22
62600;BME280;48671;48.922;2.346;2023-02-07T03:50:29;103296.41;;;2.85;66.69
62600;BME280;48671;48.922;2.346;2023-02-07T03:52:54;103311.22;;;2.92;66.17
62600;BME280;48671;48.922;2.346;2023-02-07T03:55:20;103314.56;;;2.91;66.75
62600;BME280;48671;48.922;2.346;2023-02-07T03:57:45;103326.53;;;2.89;66.06
62600;BME280;48671;48.922;2.346;2023-02-07T04:00:11;103337.94;;;2.97;66.09
62600;BME280;48671;48.922;2.346;2023-02-07T04:02:36;103331.06;;;2.96;66.37
62600;BME280;48671;48.922;2.346;2023-02-07T04:05:02;103313.56;;;2.86;66.11
62600;BME280;48671;48.922;2.346;2023-02-07T04:07:27;103342.38;;;3.01;66.70
62600;BME280;48671;48.922;2.346;2023-02-07T04:09:52;103337.69;;;2.89;66.41
62600;BME280;48671;48.922;2.346;2023-02-07T04:12:18;103320.13;;;2.77;66.27
62600;BME280;48671;48.922;2.346;2023-02-07T04:14:43;103325.25;;;2.77;66.31
62600;BME280;48671;48.922;2.346;2023-02-07T04:17:09;103324.50;;;2.80;66.32
62600;BME280;48671;48.922;2.346;2023-02-07T04:19:34;103333.38;;;2.88;66.71
62600;BME280;48671;48.922;2.346;2023-02-07T04:21:59;103323.84;;;2.86;66.49
62600;BME280;48671;48.922;2.346;2023-02-07T04:24:25;103317.94;;;2.88;66.70
62600;BME280;48671;48.922;2.346;2023-02-07T04:26:50;103350.28;;;3.07;66.62
62600;BME280;48671;48.922;2.346;2023-02-07T04:29:16;103322.38;;;2.92;65.52
62600;BME280;48671;48.922;2.346;2023-02-07T04:31:41;103313.59;;;2.87;66.17
62600;BME280;48671;48.922;2.346;2023-02-07T04:34:07;103339.91;;;3.04;66.19
62600;BME280;48671;48.922;2.346;2023-02-07T04:36:34;103328.22;;;2.88;66.37
62600;BME280;48671;48.922;2.346;2023-02-07T04:38:59;103351.41;;;2.90;65.99
62600;BME280;48671;48.922;2.346;2023-02-07T04:41:24;103345.91;;;2.79;66.36
62600;BME280;48671;48.922;2.346;2023-02-07T04:43:50;103355.34;;;2.80;66.82
62600;BME280;48671;48.922;2.346;2023-02-07T04:46:15;103352.56;;;2.74;66.69
62600;BME280;48671;48.922;2.346;2023-02-07T04:48:41;103343.72;;;2.66;67.40
62600;BME280;48671;48.922;2.346;2023-02-07T04:51:06;103354.16;;;2.70;66.73
62600;BME280;48671;48.922;2.346;2023-02-07T04:53:32;103353.31;;;2.71;67.08
62600;BME280;48671;48.922;2.346;2023-02-07T04:55:58;103350.81;;;2.73;66.61
62600;BME280;48671;48.922;2.346;2023-02-07T04:58:24;103342.03;;;2.68;66.71
62600;BME280;48671;48.922;2.346;2023-02-07T05:00:51;103340.38;;;2.68;67.00
62600;BME280;48671;48.922;2.346;2023-02-07T05:03:17;103354.91;;;2.68;66.71
62600;BME280;48671;48.922;2.346;2023-02-07T05:05:43;103359.41;;;2.73;66.76
62600;BME280;48671;48.922;2.346;2023-02-07T05:08:10;103345.44;;;2.67;66.56
62600;BME280;48671;48.922;2.346;2023-02-07T05:10:36;103356.06;;;2.76;66.54
62600;BME280;48671;48.922;2.346;2023-02-07T05:13:02;103342.66;;;2.61;66.88
62600;BME280;48671;48.922;2.346;2023-02-07T05:15:28;103353.66;;;2.56;66.85
62600;BME280;48671;48.922;2.346;2023-02-07T05:17:54;103375.53;;;2.69;67.13
62600;BME280;48671;48.922;2.346;2023-02-07T05:20:21;103358.69;;;2.53;66.99
62600;BME280;48671;48.922;2.346;2023-02-07T05:22:47;103378.88;;;2.67;67.04
62600;BME280;48671;48.922;2.346;2023-02-07T05:25:13;103357.91;;;2.56;66.78
62600;BME280;48671;48.922;2.346;2023-02-07T05:27:39;103356.13;;;2.55;67.18
62600;BME280;48671;48.922;2.346;2023-02-07T05:30:05;103374.56;;;2.66;69.19
62600;BME280;48671;48.922;2.346;2023-02-07T05:32:30;103367.31;;;3.03;69.90
62600;BME280;48671;48.922;2.346;2023-02-07T05:35:14;103367.09;;;3.21;66.30
62600;BME280;48671;48.922;2.346;2023-02-07T05:37:39;103362.13;;;3.02;66.04
62600;BME280;48671;48.922;2.346;2023-02-07T05:40:05;103372.97;;;2.93;65.98
62600;BME280;48671;48.922;2.346;2023-02-07T05:42:30;103369.06;;;2.80;66.84
62600;BME280;48671;48.922;2.346;2023-02-07T05:44:56;103359.06;;;2.64;66.60
62600;BME280;48671;48.922;2.346;2023-02-07T05:47:21;103377.25;;;2.69;66.55
62600;BME280;48671;48.922;2.346;2023-02-07T05:49:47;103349.09;;;2.49;66.98
62600;BME280;48671;48.922;2.346;2023-02-07T05:52:12;103352.44;;;2.47;66.65
62600;BME280;48671;48.922;2.346;2023-02-07T05:54:37;103369.59;;;2.48;67.79
62600;BME280;48671;48.922;2.346;2023-02-07T05:57:03;103365.88;;;2.40;67.77
62600;BME280;48671;48.922;2.346;2023-02-07T05:59:28;103356.69;;;2.46;67.25
62600;BME280;48671;48.922;2.346;2023-02-07T06:01:54;103353.25;;;2.46;66.99
62600;BME280;48671;48.922;2.346;2023-02-07T06:04:19;103351.69;;;2.27;67.69
62600;BME280;48671;48.922;2.346;2023-02-07T06:06:45;103399.50;;;2.46;67.54
62600;BME280;48671;48.922;2.346;2023-02-07T06:09:10;103391.72;;;2.44;66.79
62600;BME280;48671;48.922;2.346;2023-02-07T06:11:35;103356.81;;;2.27;67.19
62600;BME280;48671;48.922;2.346;2023-02-07T06:14:01;103379.44;;;2.36;67.60
62600;BME280;48671;48.922;2.346;2023-02-07T06:16:26;103368.22;;;2.33;67.35
62600;BME280;48671;48.922;2.346;2023-02-07T06:18:52;103385.56;;;2.39;67.72
62600;BME280;48671;48.922;2.346;2023-02-07T06:21:17;103394.13;;;2.40;67.93
62600;BME280;48671;48.922;2.346;2023-02-07T06:23:43;103381.66;;;2.26;67.87
62600;BME280;48671;48.922;2.346;2023-02-07T06:26:08;103382.44;;;2.25;67.80
62600;BME280;48671;48.922;2.346;2023-02-07T06:28:33;103389.72;;;2.36;67.58
62600;BME280;48671;48.922;2.346;2023-02-07T06:30:59;103380.19;;;2.33;66.66
62600;BME280;48671;48.922;2.346;2023-02-07T06:33:24;103367.97;;;2.27;67.28
62600;BME280;48671;48.922;2.346;2023-02-07T06:35:50;103370.66;;;2.30;66.29
62600;BME280;48671;48.922;2.346;2023-02-07T06:38:16;103399.28;;;2.40;67.58
62600;BME280;48671;48.922;2.346;2023-02-07T06:40:43;103396.72;;;2.40;66.86
62600;BME280;48671;48.922;2.346;2023-02-07T06:43:09;103399.28;;;2.40;67.08
62600;BME280;48671;48.922;2.346;2023-02-07T06:45:34;103382.63;;;2.30;66.73
62600;BME280;48671;48.922;2.346;2023-02-07T06:48:00;103379.00;;;2.25;66.64
62600;BME280;48671;48.922;2.346;2023-02-07T06:50:25;103374.56;;;2.21;66.49
62600;BME280;48671;48.922;2.346;2023-02-07T06:52:51;103376.56;;;2.28;66.25
62600;BME280;48671;48.922;2.346;2023-02-07T06:55:16;103390.34;;;2.30;66.24
62600;BME280;48671;48.922;2.346;2023-02-07T06:57:41;103395.63;;;2.34;66.55
62600;BME280;48671;48.922;2.346;2023-02-07T07:00:07;103400.84;;;2.36;66.67
62600;BME280;48671;48.922;2.346;2023-02-07T07:02:33;103404.88;;;2.29;66.38
62600;BME280;48671;48.922;2.346;2023-02-07T07:04:59;103393.78;;;2.30;66.76
62600;BME280;48671;48.922;2.346;2023-02-07T07:07:24;103381.41;;;2.20;66.21
62600;BME280;48671;48.922;2.346;2023-02-07T07:09:50;103410.06;;;2.31;66.71
62600;BME280;48671;48.922;2.346;2023-02-07T07:12:18;103424.03;;;2.38;66.46
62600;BME280;48671;48.922;2.346;2023-02-07T07:14:43;103414.28;;;2.29;66.21
62600;BME280;48671;48.922;2.346;2023-02-07T07:17:11;103422.16;;;2.33;66.05
62600;BME280;48671;48.922;2.346;2023-02-07T07:19:36;103420.75;;;2.19;66.25
62600;BME280;48671;48.922;2.346;2023-02-07T07:22:01;103427.22;;;2.32;66.85
62600;BME280;48671;48.922;2.346;2023-02-07T07:24:27;103424.38;;;2.24;66.15
62600;BME280;48671;48.922;2.346;2023-02-07T07:26:52;103435.34;;;2.20;66.17
62600;BME280;48671;48.922;2.346;2023-02-07T07:29:18;103443.28;;;2.26;65.69
62600;BME280;48671;48.922;2.346;2023-02-07T07:31:44;103427.50;;;2.17;66.26
62600;BME280;48671;48.922;2.346;2023-02-07T07:34:10;103431.78;;;2.17;65.76
62600;BME280;48671;48.922;2.346;2023-02-07T07:36:35;103436.38;;;2.25;66.25
62600;BME280;48671;48.922;2.346;2023-02-07T07:39:01;103444.88;;;2.23;66.03
62600;BME280;48671;48.922;2.346;2023-02-07T07:41:26;103451.78;;;2.25;65.66
62600;BME280;48671;48.922;2.346;2023-02-07T07:43:52;103434.16;;;2.12;65.89
62600;BME280;48671;48.922;2.346;2023-02-07T07:46:17;103453.56;;;2.26;65.49
62600;BME280;48671;48.922;2.346;2023-02-07T07:48:43;103448.56;;;2.29;66.66
62600;BME280;48671;48.922;2.346;2023-02-07T07:51:08;103429.41;;;2.44;65.63
62600;BME280;48671;48.922;2.346;2023-02-07T07:53:34;103443.19;;;2.68;65.34
62600;BME280;48671;48.922;2.346;2023-02-07T07:55:59;103439.09;;;2.97;65.27
62600;BME280;48671;48.922;2.346;2023-02-07T07:58:25;103428.88;;;3.23;63.98
62600;BME280;48671;48.922;2.346;2023-02-07T08:00:51;103412.25;;;3.37;64.03
62600;BME280;48671;48.922;2.346;2023-02-07T08:03:17;103444.50;;;3.79;62.95
62600;BME280;48671;48.922;2.346;2023-02-07T08:05:44;103427.94;;;3.96;62.66
62600;BME280;48671;48.922;2.346;2023-02-07T08:08:10;103448.44;;;4.20;61.28
62600;BME280;48671;48.922;2.346;2023-02-07T08:10:36;103445.03;;;4.21;61.34
62600;BME280;48671;48.922;2.346;2023-02-07T08:13:05;103452.72;;;4.19;61.43
62600;BME280;48671;48.922;2.346;2023-02-07T08:15:30;103430.22;;;3.88;60.81
62600;BME280;48671;48.922;2.346;2023-02-07T08:17:56;103433.97;;;3.71;61.56
62600;BME280;48671;48.922;2.346;2023-02-07T08:20:21;103444.81;;;3.62;61.95
62600;BME280;48671;48.922;2.346;2023-02-07T08:22:47;103439.47;;;3.56;62.49
62600;BME280;48671;48.922;2.346;2023-02-07T08:25:12;103432.78;;;3.61;62.70
62600;BME280;48671;48.922;2.346;2023-02-07T08:27:38;103424.53;;;3.71;62.02
62600;BME280;48671;48.922;2.346;2023-02-07T08:30:06;103440.91;;;3.99;61.42
62600;BME280;48671;48.922;2.346;2023-02-07T08:32:33;103424.72;;;4.03;60.80
62600;BME280;48671;48.922;2.346;2023-02-07T08:34:58;103433.66;;;4.14;60.50
62600;BME280;48671;48.922;2.346;2023-02-07T08:37:23;103456.66;;;4.35;60.53
62600;BME280;48671;48.922;2.346;2023-02-07T08:39:49;103436.91;;;4.36;60.30
62600;BME280;48671;48.922;2.346;2023-02-07T08:42:18;103444.13;;;4.47;59.12
62600;BME280;48671;48.922;2.346;2023-02-07T08:44:45;103423.16;;;4.35;60.14
62600;BME280;48671;48.922;2.346;2023-02-07T08:47:10;103444.97;;;4.46;59.02
62600;BME280;48671;48.922;2.346;2023-02-07T08:49:35;103427.38;;;4.33;58.98
62600;BME280;48671;48.922;2.346;2023-02-07T08:52:01;103450.13;;;4.46;58.54
62600;BME280;48671;48.922;2.346;2023-02-07T08:54:26;103436.44;;;4.49;59.71
62600;BME280;48671;48.922;2.346;2023-02-07T08:56:51;103446.00;;;4.52;58.04
62600;BME280;48671;48.922;2.346;2023-02-07T08:59:17;103440.66;;;4.47;58.95
62600;BME280;48671;48.922;2.346;2023-02-07T09:01:42;103446.19;;;4.58;59.19
62600;BME280;48671;48.922;2.346;2023-02-07T09:04:08;103418.22;;;4.43;58.98
62600;BME280;48671;48.922;2.346;2023-02-07T09:06:35;103403.59;;;4.42;58.65
62600;BME280;48671;48.922;2.346;2023-02-07T09:09:01;103441.06;;;4.61;58.64
62600;BME280;48671;48.922;2.346;2023-02-07T09:11:27;103426.88;;;4.45;58.50
62600;BME280;48671;48.922;2.346;2023-02-07T09:13:52;103440.97;;;4.56;57.78
62600;BME280;48671;48.922;2.346;2023-02-07T09:16:18;103438.47;;;4.59;58.06
62600;BME280;48671;48.922;2.346;2023-02-07T09:18:43;103452.28;;;4.61;58.36
62600;BME280;48671;48.922;2.346;2023-02-07T09:21:09;103445.56;;;4.66;57.35
62600;BME280;48671;48.922;2.346;2023-02-07T09:23:34;103449.47;;;4.84;58.03
62600;BME280;48671;48.922;2.346;2023-02-07T09:26:05;103469.53;;;4.92;58.21
62600;BME280;48671;48.922;2.346;2023-02-07T09:28:31;103469.63;;;4.96;56.34
62600;BME280;48671;48.922;2.346;2023-02-07T09:30:56;103475.63;;;4.95;56.17
62600;BME280;48671;48.922;2.346;2023-02-07T09:33:22;103459.34;;;4.97;56.97
62600;BME280;48671;48.922;2.346;2023-02-07T09:35:48;103473.34;;;5.05;55.46
62600;BME280;48671;48.922;2.346;2023-02-07T09:38:18;103483.25;;;5.22;56.05
62600;BME280;48671;48.922;2.346;2023-02-07T09:40:45;103484.28;;;5.27;55.07
62600;BME280;48671;48.922;2.346;2023-02-07T09:46:01;103488.94;;;5.40;55.09
62600;BME280;48671;48.922;2.346;2023-02-07T09:48:38;103487.69;;;5.57;55.78
62600;BME280;48671;48.922;2.346;2023-02-07T09:51:10;103481.84;;;5.64;55.60
62600;BME280;48671;48.922;2.346;2023-02-07T09:53:42;103491.22;;;5.93;55.08
62600;BME280;48671;48.922;2.346;2023-02-07T09:56:09;103475.88;;;6.00;53.28
62600;BME280;48671;48.922;2.346;2023-02-07T10:01:39;103489.28;;;6.20;52.80
62600;BME280;48671;48.922;2.346;2023-02-07T10:06:49;103491.53;;;6.41;51.64
62600;BME280;48671;48.922;2.346;2023-02-07T10:09:18;103484.84;;;6.51;51.64
62600;BME280;48671;48.922;2.346;2023-02-07T10:15:18;103496.78;;;6.85;52.57
62600;BME280;48671;48.922;2.346;2023-02-07T10:21:26;103480.19;;;6.74;51.06
62600;BME280;48671;48.922;2.346;2023-02-07T10:24:45;103495.56;;;7.09;51.49
62600;BME280;48671;48.922;2.346;2023-02-07T10:26:57;103475.72;;;7.09;50.99
62600;BME280;48671;48.922;2.346;2023-02-07T10:32:24;103496.00;;;7.32;47.98
62600;BME280;48671;48.922;2.346;2023-02-07T10:34:57;103480.41;;;7.28;50.05
62600;BME280;48671;48.922;2.346;2023-02-07T10:37:28;103478.00;;;7.36;49.88
62600;BME280;48671;48.922;2.346;2023-02-07T10:40:10;103501.63;;;7.55;49.54
62600;BME280;48671;48.922;2.346;2023-02-07T10:42:38;103496.13;;;7.38;47.68
62600;BME280;48671;48.922;2.346;2023-02-07T10:45:06;103478.06;;;7.39;47.82
62600;BME280;48671;48.922;2.346;2023-02-07T10:47:38;103478.06;;;7.41;47.96
62600;BME280;48671;48.922;2.346;2023-02-07T10:50:16;103473.13;;;7.55;47.14
62600;BME280;48671;48.922;2.346;2023-02-07T10:52:47;103473.41;;;7.70;49.10
62600;BME280;48671;48.922;2.346;2023-02-07T10:55:19;103474.50;;;7.84;48.29
62600;BME280;48671;48.922;2.346;2023-02-07T10:57:53;103471.22;;;7.93;48.91
62600;BME280;48671;48.922;2.346;2023-02-07T11:00:25;103475.69;;;8.03;48.24
62600;BME280;48671;48.922;2.346;2023-02-07T11:03:03;103486.28;;;8.17;48.22
62600;BME280;48671;48.922;2.346;2023-02-07T11:05:35;103485.59;;;8.29;47.70
62600;BME280;48671;48.922;2.346;2023-02-07T11:10:41;103468.66;;;8.51;48.21
62600;BME280;48671;48.922;2.346;2023-02-07T11:13:22;103472.34;;;8.68;46.20
62600;BME280;48671;48.922;2.346;2023-02-07T11:15:55;103477.63;;;8.74;46.49
62600;BME280;48671;48.922;2.346;2023-02-07T11:21:05;103465.69;;;8.87;44.97
62600;BME280;48671;48.922;2.346;2023-02-07T11:23:31;103476.19;;;8.98;46.20
62600;BME280;48671;48.922;2.346;2023-02-07T11:25:57;103436.97;;;8.76;45.37
62600;BME280;48671;48.922;2.346;2023-02-07T11:28:26;103429.19;;;8.75;45.08
62600;BME280;48671;48.922;2.346;2023-02-07T11:31:01;103451.09;;;8.98;45.21
62600;BME280;48671;48.922;2.346;2023-02-07T11:33:32;103445.00;;;8.95;45.25
62600;BME280;48671;48.922;2.346;2023-02-07T11:38:54;103465.13;;;9.12;45.64
62600;BME280;48671;48.922;2.346;2023-02-07T11:41:25;103439.06;;;9.03;45.09
62600;BME280;48671;48.922;2.346;2023-02-07T11:46:20;103429.00;;;9.37;45.63
62600;BME280;48671;48.922;2.346;2023-02-07T11:48:48;103455.28;;;9.65;44.90
62600;BME280;48671;48.922;2.346;2023-02-07T11:51:17;103461.38;;;9.70;44.97
62600;BME280;48671;48.922;2.346;2023-02-07T11:54:09;103448.41;;;9.74;44.52
62600;BME280;48671;48.922;2.346;2023-02-07T11:56:48;103448.50;;;9.87;44.55
62600;BME280;48671;48.922;2.346;2023-02-07T11:59:17;103446.06;;;10.08;44.96
62600;BME280;48671;48.922;2.346;2023-02-07T12:01:51;103454.06;;;10.32;42.40
62600;BME280;48671;48.922;2.346;2023-02-07T12:04:20;103433.94;;;10.10;43.14
62600;BME280;48671;48.922;2.346;2023-02-07T12:06:54;103452.22;;;10.19;44.11
62600;BME280;48671;48.922;2.346;2023-02-07T12:11:55;103420.97;;;10.16;42.33
62600;BME280;48671;48.922;2.346;2023-02-07T12:14:35;103408.94;;;10.29;41.86
62600;BME280;48671;48.922;2.346;2023-02-07T12:17:11;103419.41;;;10.40;42.89
62600;BME280;48671;48.922;2.346;2023-02-07T12:19:51;103429.88;;;10.52;41.57
62600;BME280;48671;48.922;2.346;2023-02-07T12:22:20;103434.25;;;10.53;42.32
62600;BME280;48671;48.922;2.346;2023-02-07T12:24:54;103427.28;;;10.47;40.00
62600;BME280;48671;48.922;2.346;2023-02-07T12:27:34;103416.91;;;10.61;41.42
62600;BME280;48671;48.922;2.346;2023-02-07T12:30:13;103416.03;;;10.59;41.31
62600;BME280;48671;48.922;2.346;2023-02-07T12:32:56;103420.41;;;10.68;41.87
62600;BME280;48671;48.922;2.346;2023-02-07T12:35:30;103412.63;;;10.78;41.87
62600;BME280;48671;48.922;2.346;2023-02-07T12:38:35;103434.38;;;10.88;41.52
62600;BME280;48671;48.922;2.346;2023-02-07T12:41:41;103419.66;;;10.99;41.49
62600;BME280;48671;48.922;2.346;2023-02-07T12:44:37;103433.50;;;10.85;40.72
62600;BME280;48671;48.922;2.346;2023-02-07T12:52:56;103417.66;;;9.27;42.18
62600;BME280;48671;48.922;2.346;2023-02-07T12:55:57;103432.13;;;9.04;43.22
62600;BME280;48671;48.922;2.346;2023-02-07T13:07:35;103425.84;;;8.21;45.02
62600;BME280;48671;48.922;2.346;2023-02-07T13:12:56;103434.25;;;8.06;44.86
62600;BME280;48671;48.922;2.346;2023-02-07T13:15:48;103408.84;;;7.84;45.63
62600;BME280;48671;48.922;2.346;2023-02-07T13:18:33;103415.91;;;7.94;45.69
62600;BME280;48671;48.922;2.346;2023-02-07T13:23:35;103415.00;;;8.50;45.33
62600;BME280;48671;48.922;2.346;2023-02-07T13:26:10;103407.84;;;9.02;43.72
62600;BME280;48671;48.922;2.346;2023-02-07T13:28:44;103418.94;;;9.72;44.94
62600;BME280;48671;48.922;2.346;2023-02-07T13:31:15;103394.06;;;10.13;44.49
62600;BME280;48671;48.922;2.346;2023-02-07T13:33:42;103414.31;;;10.66;43.20
62600;BME280;48671;48.922;2.346;2023-02-07T13:36:36;103397.94;;;10.94;40.80
62600;BME280;48671;48.922;2.346;2023-02-07T13:47:14;103424.06;;;12.18;40.36
62600;BME280;48671;48.922;2.346;2023-02-07T13:50:03;103397.06;;;12.33;40.27
62600;BME280;48671;48.922;2.346;2023-02-07T13:52:42;103411.78;;;12.59;38.32
62600;BME280;48671;48.922;2.346;2023-02-07T13:55:26;103410.88;;;12.66;39.37
62600;BME280;48671;48.922;2.346;2023-02-07T13:57:52;103398.63;;;12.79;39.70
62600;BME280;48671;48.922;2.346;2023-02-07T14:00:59;103408.06;;;13.01;38.46
62600;BME280;48671;48.922;2.346;2023-02-07T14:03:34;103405.38;;;13.17;38.78
62600;BME280;48671;48.922;2.346;2023-02-07T14:06:21;103363.50;;;13.29;37.33
62600;BME280;48671;48.922;2.346;2023-02-07T14:08:57;103372.91;;;13.47;38.91
62600;BME280;48671;48.922;2.346;2023-02-07T14:11:34;103388.41;;;13.70;37.39
62600;BME280;48671;48.922;2.346;2023-02-07T14:14:26;103376.09;;;13.82;38.22
62600;BME280;48671;48.922;2.346;2023-02-07T14:16:53;103386.63;;;13.75;34.37
62600;BME280;48671;48.922;2.346;2023-02-07T14:22:30;103363.84;;;13.86;37.45
62600;BME280;48671;48.922;2.346;2023-02-07T14:30:16;103384.47;;;14.17;36.21
62600;BME280;48671;48.922;2.346;2023-02-07T14:33:08;103376.75;;;14.04;36.81
62600;BME280;48671;48.922;2.346;2023-02-07T14:35:37;103376.00;;;13.93;35.96
62600;BME280;48671;48.922;2.346;2023-02-07T14:48:45;103362.84;;;13.98;36.43
62600;BME280;48671;48.922;2.346;2023-02-07T14:51:16;103383.53;;;14.21;35.90
62600;BME280;48671;48.922;2.346;2023-02-07T14:53:43;103382.78;;;14.11;35.66
62600;BME280;48671;48.922;2.346;2023-02-07T14:56:19;103379.25;;;14.12;36.34